Time;durP1;ratioP1;P1;durP2;ratioP2;P2;SDS_P1;SDS_P2;PMS_P1;PMS_P2;Temp;Humidity;BMP_temperature;BMP_pressure;BME280_temperature;BME280_humidity;BME280_pressure;Samples;Min_cycle;Max_cycle;Signal;HPM_P1;HPM_P2
2021/10/09 00:02:03;;;;;;;32.47;27.73;;;;;;;9.71;98.79;102927.78;5116002;28;20068;-35
2021/10/09 00:04:28;;;;;;;36.53;28.07;;;;;;;9.75;98.79;102942.59;5115954;28;20064;-35
2021/10/09 00:06:54;;;;;;;40.17;30.40;;;;;;;9.77;99.11;102945.97;5116516;28;20019;-35
2021/10/09 00:09:19;;;;;;;33.80;27.85;;;;;;;9.68;98.42;102940.78;5115454;28;20389;-35
2021/10/09 00:11:44;;;;;;;33.67;28.93;;;;;;;9.77;98.57;102948.69;5116557;28;20043;-35
2021/10/09 00:14:12;;;;;;;35.10;29.20;;;;;;;9.58;98.20;102932.03;5115750;28;20024;-35
2021/10/09 00:16:42;;;;;;;33.95;28.00;;;;;;;9.60;98.58;102933.53;5115932;28;20027;-35
2021/10/09 00:19:08;;;;;;;38.40;29.42;;;;;;;9.71;98.35;102951.22;5115212;28;20447;-35
2021/10/09 00:21:33;;;;;;;34.13;28.30;;;;;;;9.68;98.31;102951.59;5115852;28;20034;-35
2021/10/09 00:24:00;;;;;;;30.67;26.27;;;;;;;9.67;98.23;102952.59;5115491;28;20405;-35
2021/10/09 00:26:25;;;;;;;29.30;25.38;;;;;;;9.63;97.88;102952.09;5115944;28;20019;-35
2021/10/09 00:28:51;;;;;;;35.20;28.45;;;;;;;9.62;97.67;102947.72;5115314;28;20476;-35
2021/10/09 00:31:16;;;;;;;32.45;25.48;;;;;;;9.61;98.50;102945.19;5115565;28;20020;-35
2021/10/09 00:33:42;;;;;;;34.30;28.20;;;;;;;9.57;97.87;102950.09;5115450;28;20054;-35
2021/10/09 00:36:07;;;;;;;31.77;27.20;;;;;;;9.48;97.87;102945.72;5115045;28;20019;-35
2021/10/09 00:38:32;;;;;;;36.95;30.02;;;;;;;9.42;97.78;102936.47;5115271;28;20111;-35
2021/10/09 00:40:58;;;;;;;35.30;29.00;;;;;;;9.43;98.01;102923.81;5115490;28;20027;-35
2021/10/09 00:43:23;;;;;;;37.50;29.60;;;;;;;9.45;98.01;102935.25;5115287;28;20038;-35
2021/10/09 00:45:54;;;;;;;32.00;27.23;;;;;;;9.40;97.10;102937.63;5115203;28;20448;-35
2021/10/09 00:48:19;;;;;;;35.17;29.60;;;;;;;9.30;98.17;102924.31;5115292;28;20019;-35
2021/10/09 00:50:45;;;;;;;35.88;28.70;;;;;;;9.27;97.97;102933.63;5114723;28;20042;-35
2021/10/09 00:53:13;;;;;;;37.35;30.60;;;;;;;9.33;98.52;102932.09;5115024;28;20051;-35
2021/10/09 00:55:39;;;;;;;40.13;31.05;;;;;;;9.33;99.21;102942.06;5114901;28;20039;-35
2021/10/09 00:58:05;;;;;;;36.15;30.75;;;;;;;9.31;98.69;102939.50;5115149;28;20111;-35
2021/10/09 01:00:31;;;;;;;;;;;;;;;9.39;98.04;102935.97;5115140;28;20030;-35
2021/10/09 01:02:57;;;;;;;36.90;29.75;;;;;;;9.29;98.37;102941.56;5114503;28;19904;-35
2021/10/09 01:05:23;;;;;;;39.00;31.42;;;;;;;9.24;98.72;102939.38;5114729;28;20051;-35
2021/10/09 01:07:49;;;;;;;40.00;29.15;;;;;;;9.19;98.57;102936.34;5114876;28;20527;-35
2021/10/09 01:10:14;;;;;;;32.70;27.83;;;;;;;9.15;97.54;102934.16;5130188;27;20106;-35
2021/10/09 01:12:40;;;;;;;36.80;31.07;;;;;;;9.11;98.28;102930.94;5115711;28;20097;-35
2021/10/09 01:15:16;;;;;;;41.83;31.07;;;;;;;9.19;99.17;102924.69;5095575;28;20357;-35
2021/10/09 01:17:41;;;;;;;31.45;25.73;;;;;;;9.16;98.03;102930.44;5115201;28;20016;-35
2021/10/09 01:20:11;;;;;;;39.10;30.50;;;;;;;9.12;97.80;102935.31;5114142;28;20038;-35
2021/10/09 01:22:37;;;;;;;37.83;30.88;;;;;;;9.09;98.75;102924.03;5114711;28;20062;-35
2021/10/09 01:25:03;;;;;;;41.53;31.57;;;;;;;9.21;99.34;102930.75;5114306;28;20129;-35
2021/10/09 01:27:28;;;;;;;42.47;31.27;;;;;;;9.20;99.42;102927.22;5113999;28;20028;-35
2021/10/09 01:29:54;;;;;;;46.08;34.05;;;;;;;9.13;99.71;102910.03;5114215;28;20076;-35
2021/10/09 01:32:19;;;;;;;38.73;31.60;;;;;;;9.18;99.21;102928.41;5114487;28;20024;-35
2021/10/09 01:34:44;;;;;;;41.10;32.93;;;;;;;9.17;98.87;102927.53;5114057;28;20034;-35
2021/10/09 01:37:10;;;;;;;38.90;32.42;;;;;;;9.05;99.52;102910.03;5113884;28;20026;-35
2021/10/09 01:39:41;;;;;;;42.67;32.00;;;;;;;8.89;98.96;102902.81;5114773;28;20134;-35
2021/10/09 01:42:06;;;;;;;38.67;30.75;;;;;;;9.10;98.99;102926.56;5114355;28;20019;-35
2021/10/09 01:44:32;;;;;;;40.87;32.50;;;;;;;9.05;98.54;102925.38;5113751;28;20363;-35
2021/10/09 01:46:57;;;;;;;35.30;28.90;;;;;;;9.07;99.22;102921.50;5113841;28;20420;-35
2021/10/09 01:49:22;;;;;;;38.30;30.97;;;;;;;8.89;98.96;102889.31;5095626;28;20054;-35
2021/10/09 01:51:48;;;;;;;41.93;32.47;;;;;;;9.05;98.99;102920.00;5114455;28;20016;-35
2021/10/09 01:54:13;;;;;;;44.27;34.00;;;;;;;9.06;99.50;102927.06;5113793;28;20028;-35
2021/10/09 01:56:39;;;;;;;42.95;33.88;;;;;;;9.09;100.00;102924.03;5114124;28;20467;-35
2021/10/09 01:59:04;;;;;;;51.67;38.65;;;;;;;8.97;100.00;102910.88;5114027;28;20084;-35
2021/10/09 02:01:30;;;;;;;45.73;35.60;;;;;;;9.02;100.00;102919.28;5113797;28;20069;-35
2021/10/09 02:03:55;;;;;;;43.87;32.87;;;;;;;8.99;100.00;102925.06;5114406;28;20265;-35
2021/10/09 02:06:21;;;;;;;45.70;33.83;;;;;;;8.99;100.00;102922.34;5114211;28;20250;-35
2021/10/09 02:08:46;;;;;;;42.57;32.23;;;;;;;8.86;99.17;102911.22;5113873;28;20365;-35
2021/10/09 02:11:18;;;;;;;44.20;35.77;;;;;;;8.98;100.00;102914.44;5113793;28;20337;-35
2021/10/09 02:24:10;;;;;;;44.15;34.40;;;;;;;8.99;100.00;102919.66;5113854;28;20392;-35
2021/10/09 02:24:51;;;;;;;47.40;37.10;;;;;;;9.05;100.00;102917.28;5113757;28;20034;-35
2021/10/09 02:27:17;;;;;;;49.95;36.03;;;;;;;9.04;100.00;102905.66;5113516;28;20020;-35
2021/10/09 02:29:42;;;;;;;51.37;38.30;;;;;;;8.97;100.00;102908.16;5113387;28;20034;-35
2021/10/09 02:32:07;;;;;;;43.27;33.63;;;;;;;8.84;100.00;102888.16;5113135;28;20106;-35
2021/10/09 02:34:33;;;;;;;51.00;39.33;;;;;;;8.95;100.00;102903.97;5113067;28;20115;-35
2021/10/09 02:36:58;;;;;;;44.53;34.83;;;;;;;8.86;99.71;102908.53;5113355;28;20076;-35
2021/10/09 02:39:24;;;;;;;44.30;32.73;;;;;;;8.94;100.00;102905.84;5113089;28;20023;-35
2021/10/09 02:41:49;;;;;;;48.53;36.50;;;;;;;8.86;100.00;102903.13;5113919;28;20156;-35
2021/10/09 02:44:14;;;;;;;48.57;36.53;;;;;;;8.86;100.00;102907.69;5113319;28;20363;-35
2021/10/09 02:46:40;;;;;;;46.07;35.87;;;;;;;8.84;100.00;102915.13;5113828;28;20317;-35
2021/10/09 02:49:05;;;;;;;49.83;36.13;;;;;;;8.72;100.00;102890.31;5113188;28;20051;-35
2021/10/09 02:51:31;;;;;;;53.13;38.58;;;;;;;8.86;100.00;102902.28;5113430;28;20027;-35
2021/10/09 02:53:56;;;;;;;46.50;34.43;;;;;;;8.79;100.00;102906.69;5112958;28;20023;-35
2021/10/09 02:56:21;;;;;;;53.80;38.93;;;;;;;8.84;100.00;102904.31;5113157;28;20027;-35
2021/10/09 02:58:46;;;;;;;49.70;38.80;;;;;;;8.80;100.00;102900.28;5112764;28;20023;-35
2021/10/09 03:01:12;;;;;;;47.20;35.83;;;;;;;8.81;100.00;102900.09;5113490;28;20029;-35
2021/10/09 03:03:37;;;;;;;49.00;36.37;;;;;;;8.78;100.00;102908.53;5113036;28;20104;-35
2021/10/09 03:06:03;;;;;;;47.97;36.20;;;;;;;8.63;100.00;102872.44;5113722;28;20077;-35
2021/10/09 03:08:28;;;;;;;44.83;33.25;;;;;;;8.64;100.00;102877.69;5114460;28;20459;-35
2021/10/09 03:10:53;;;;;;;49.37;35.50;;;;;;;8.59;100.00;102871.09;5117043;28;20036;-35
2021/10/09 03:13:19;;;;;;;52.47;38.23;;;;;;;8.72;100.00;102903.81;5116640;28;20020;-35
2021/10/09 03:15:44;;;;;;;53.23;39.10;;;;;;;8.70;100.00;102903.16;5116932;28;20032;-35
2021/10/09 03:18:09;;;;;;;49.33;38.13;;;;;;;8.66;100.00;102908.03;5117351;28;20011;-35
2021/10/09 03:20:36;;;;;;;48.47;37.43;;;;;;;8.72;100.00;102904.66;5117000;28;20026;-35
2021/10/09 03:23:01;;;;;;;50.95;38.22;;;;;;;8.65;100.00;102914.44;5116663;28;20058;-35
2021/10/09 03:25:27;;;;;;;53.38;39.08;;;;;;;8.64;100.00;102909.22;5116339;28;20028;-35
2021/10/09 03:27:52;;;;;;;55.83;40.33;;;;;;;8.68;100.00;102906.00;5116547;28;20019;-35
2021/10/09 03:30:18;;;;;;;56.80;41.47;;;;;;;8.65;100.00;102906.34;5098209;28;20039;-35
2021/10/09 03:32:43;;;;;;;62.05;43.65;;;;;;;8.45;100.00;102865.38;5116904;28;20027;-35
2021/10/09 03:35:09;;;;;;;56.33;41.63;;;;;;;8.68;100.00;102900.59;5116447;28;20043;-35
2021/10/09 03:37:36;;;;;;;60.08;41.83;;;;;;;8.67;100.00;102909.69;5116729;28;20352;-35
2021/10/09 03:40:04;;;;;;;64.00;47.15;;;;;;;8.66;100.00;102902.63;5116374;28;20023;-35
2021/10/09 03:45:02;;;;;;;55.38;43.95;;;;;;;8.63;100.00;102907.50;5115971;28;20097;-35
2021/10/09 03:48:21;;;;;;;55.92;42.72;;;;;;;8.58;100.00;102905.31;5116522;28;20024;-35
2021/10/09 03:52:57;;;;;;;56.85;41.55;;;;;;;8.62;100.00;102900.44;5116060;28;20387;-35
2021/10/09 03:55:22;;;;;;;51.23;40.07;;;;;;;8.45;100.00;102900.44;5115815;28;20019;-35
2021/10/09 03:57:47;;;;;;;53.87;40.13;;;;;;;8.47;100.00;102894.88;5116323;28;20028;-35
2021/10/09 04:00:17;;;;;;;48.80;37.07;;;;;;;8.50;100.00;102908.88;5116765;28;20027;-35
2021/10/09 04:02:43;;;;;;;54.03;38.33;;;;;;;8.46;100.00;102898.56;5116644;28;20039;-35
2021/10/09 04:05:09;;;;;;;49.17;37.13;;;;;;;8.46;100.00;102888.63;5115835;28;20020;-35
2021/10/09 04:07:34;;;;;;;55.40;39.65;;;;;;;8.50;100.00;102905.31;5116021;28;20115;-34
2021/10/09 04:09:59;;;;;;;43.43;32.93;;;;;;;8.45;100.00;102907.69;5116088;28;20110;-35
2021/10/09 04:12:25;;;;;;;48.13;35.63;;;;;;;8.37;100.00;102916.59;5116463;28;20043;-35
2021/10/09 04:14:50;;;;;;;54.97;39.47;;;;;;;8.38;100.00;102909.34;5115828;28;20022;-35
2021/10/09 04:17:15;;;;;;;54.43;40.97;;;;;;;8.40;100.00;102907.34;5115730;28;20027;-35
2021/10/09 04:19:41;;;;;;;59.95;44.45;;;;;;;8.38;100.00;102910.19;5114858;28;20040;-35
2021/10/09 04:22:07;;;;;;;52.30;38.20;;;;;;;8.28;100.00;102890.59;5116157;28;20027;-35
2021/10/09 04:24:32;;;;;;;56.95;41.33;;;;;;;8.34;100.00;102906.09;5115540;28;20348;-35
2021/10/09 04:26:58;;;;;;;63.60;44.72;;;;;;;8.36;100.00;102906.81;5115498;28;20031;-35
2021/10/09 04:29:24;;;;;;;51.78;38.42;;;;;;;8.35;100.00;102902.41;5115731;28;20020;-35
2021/10/09 04:31:50;;;;;;;50.03;37.80;;;;;;;8.21;100.00;102893.13;5115334;28;20496;-35
2021/10/09 04:34:16;;;;;;;52.45;39.60;;;;;;;8.30;100.00;102915.53;5115458;28;20729;-35
2021/10/09 04:36:41;;;;;;;54.67;38.53;;;;;;;8.23;100.00;102901.03;5115255;28;20023;-35
2021/10/09 04:39:07;;;;;;;51.70;37.20;;;;;;;8.18;100.00;102915.00;5096958;28;20026;-35
2021/10/09 04:41:32;;;;;;;49.63;34.77;;;;;;;8.20;100.00;102912.16;5115107;28;20106;-35
2021/10/09 04:43:57;;;;;;;55.57;39.10;;;;;;;8.14;100.00;102896.63;5115422;28;20444;-35
2021/10/09 04:46:23;;;;;;;49.07;36.37;;;;;;;8.03;100.00;102910.41;5115530;28;20102;-35
2021/10/09 04:48:48;;;;;;;46.93;35.77;;;;;;;8.02;100.00;102911.44;5114999;28;20020;-35
2021/10/09 04:51:14;;;;;;;47.87;36.40;;;;;;;7.97;100.00;102912.75;5114900;28;20051;-35
2021/10/09 04:53:39;;;;;;;46.03;33.53;;;;;;;7.77;100.00;102897.88;5115599;28;20020;-35
2021/10/09 04:56:05;;;;;;;41.57;32.63;;;;;;;7.80;99.49;102910.16;5115305;28;20069;-35
2021/10/09 04:58:30;;;;;;;56.00;33.63;;;;;;;7.85;99.66;102915.91;5115421;28;20038;-35
2021/10/09 05:00:55;;;;;;;41.83;32.27;;;;;;;7.81;100.00;102912.72;5115164;28;20100;-35
2021/10/09 05:03:21;;;;;;;47.57;35.77;;;;;;;7.78;100.00;102896.84;5114451;28;20047;-35
2021/10/09 05:05:46;;;;;;;47.10;34.20;;;;;;;7.83;100.00;102913.38;5115006;28;20015;-35
2021/10/09 05:08:11;;;;;;;41.33;30.27;;;;;;;7.72;99.70;102897.50;5115354;28;20054;-35
2021/10/09 05:10:38;;;;;;;52.30;36.33;;;;;;;7.71;100.00;102917.34;5114615;28;20404;-35
2021/10/09 05:13:04;;;;;;;46.25;34.30;;;;;;;7.60;100.00;102896.09;5114823;28;20023;-35
2021/10/09 05:15:29;;;;;;;40.22;30.83;;;;;;;7.58;98.50;102917.81;5114565;28;20177;-35
2021/10/09 05:17:54;;;;;;;42.27;33.30;;;;;;;7.46;99.37;102919.91;5114265;28;20026;-35
2021/10/09 05:20:20;;;;;;;41.90;31.13;;;;;;;7.54;99.76;102920.97;5114142;28;20032;-35
2021/10/09 05:22:46;;;;;;;46.42;33.42;;;;;;;7.26;99.36;102888.00;5114541;28;20023;-35
2021/10/09 05:25:11;;;;;;;44.03;32.37;;;;;;;7.43;99.09;102925.63;5114310;28;20130;-35
2021/10/09 05:27:38;;;;;;;38.88;29.52;;;;;;;7.42;98.57;102920.44;5115071;28;20019;-35
2021/10/09 05:30:07;;;;;;;45.50;34.15;;;;;;;7.47;99.46;102924.31;5113831;28;20132;-35
2021/10/09 05:32:35;;;;;;;42.58;32.35;;;;;;;7.35;99.42;102916.66;5114125;28;20024;-35
2021/10/09 05:35:00;;;;;;;44.17;33.80;;;;;;;7.37;98.89;102928.97;5114042;28;20023;-35
2021/10/09 05:37:27;;;;;;;46.53;34.97;;;;;;;7.35;99.50;102927.44;5113874;28;20142;-35
2021/10/09 05:39:52;;;;;;;39.40;30.85;;;;;;;7.21;97.79;102924.31;5113926;28;20028;-35
2021/10/09 05:42:17;;;;;;;42.20;32.47;;;;;;;7.28;98.67;102927.22;5114332;28;20027;-35
2021/10/09 05:44:43;;;;;;;36.03;28.10;;;;;;;7.21;97.10;102931.53;5113909;28;20054;-35
2021/10/09 05:47:08;;;;;;;34.07;27.27;;;;;;;7.02;97.41;102912.91;5113938;28;20099;-35
2021/10/09 05:49:35;;;;;;;39.90;28.07;;;;;;;7.13;98.29;102934.19;5114272;28;20076;-35
2021/10/09 05:52:09;;;;;;;40.72;30.95;;;;;;;6.96;98.46;102925.16;5113678;28;20027;-35
2021/10/09 05:54:43;;;;;;;42.28;30.80;;;;;;;6.91;98.65;102903.25;5113619;28;20103;-35
2021/10/09 05:57:35;;;;;;;41.67;30.50;;;;;;;6.99;97.06;102940.13;5113592;28;20061;-35
2021/10/09 06:43:14;;;;;;;60.72;41.17;;;;;;;7.49;100.00;102941.16;5116428;28;20046;-35
2021/10/09 06:59:24;;;;;;;51.05;37.10;;;;;;;7.51;100.00;102965.19;5131150;27;20038;-35
2021/10/09 07:01:54;;;;;;;70.00;46.90;;;;;;;7.86;100.00;102975.00;5117462;28;20066;-35
2021/10/09 07:04:19;;;;;;;64.17;42.77;;;;;;;7.93;100.00;102976.03;5099178;28;20400;-35
2021/10/09 07:06:45;;;;;;;60.50;43.73;;;;;;;7.96;100.00;102981.13;5117213;28;20011;-35
2021/10/09 07:09:11;;;;;;;70.68;49.80;;;;;;;7.84;100.00;102950.06;5117397;28;20035;-35
2021/10/09 07:11:36;;;;;;;70.17;49.37;;;;;;;8.03;100.00;102980.47;5118055;28;20417;-35
2021/10/09 07:14:03;;;;;;;75.77;48.17;;;;;;;8.08;100.00;102983.50;5116573;28;20015;-35
2021/10/09 07:16:28;;;;;;;71.60;48.33;;;;;;;8.12;100.00;102983.03;5117400;28;20366;-35
2021/10/09 07:18:54;;;;;;;73.40;48.90;;;;;;;8.19;100.00;102984.06;5116541;28;20102;-35
2021/10/09 07:21:19;;;;;;;69.47;48.47;;;;;;;8.24;100.00;102981.72;5117414;28;20034;-35
2021/10/09 07:23:45;;;;;;;72.53;48.40;;;;;;;8.11;100.00;102951.72;5116973;28;20444;-35
2021/10/09 07:26:11;;;;;;;66.43;45.83;;;;;;;8.36;100.00;102986.81;5117055;28;20436;-35
2021/10/09 07:28:36;;;;;;;66.38;47.97;;;;;;;8.41;100.00;102988.03;5116806;28;20072;-35
2021/10/09 07:31:01;;;;;;;71.50;50.47;;;;;;;8.43;100.00;102985.19;5116838;28;20023;-35
2021/10/09 07:33:27;;;;;;;63.50;45.13;;;;;;;8.52;100.00;102987.72;5116320;28;20475;-35
2021/10/09 07:35:52;;;;;;;75.23;50.83;;;;;;;8.56;100.00;102993.63;5117169;28;20062;-35
2021/10/09 07:38:18;;;;;;;72.93;47.63;;;;;;;8.57;100.00;102984.53;5117102;28;20076;-35
2021/10/09 07:40:43;;;;;;;72.35;51.70;;;;;;;8.68;100.00;102991.47;5116700;28;20027;-35
2021/10/09 07:43:09;;;;;;;67.68;47.88;;;;;;;8.71;100.00;102991.97;5116706;28;20042;-35
2021/10/09 07:45:34;;;;;;;66.30;46.33;;;;;;;8.71;100.00;102975.78;5116102;28;20024;-35
2021/10/09 07:48:00;;;;;;;63.90;46.40;;;;;;;8.89;100.00;102999.94;5116938;28;20034;-35
2021/10/09 07:50:25;;;;;;;67.33;46.37;;;;;;;8.90;100.00;102979.19;5115926;28;20027;-35
2021/10/09 07:52:50;;;;;;;70.80;48.67;;;;;;;9.01;100.00;102997.75;5116849;28;20023;-35
2021/10/09 07:55:16;;;;;;;69.93;48.30;;;;;;;9.05;100.00;103000.97;5115308;28;20372;-35
2021/10/09 07:57:41;;;;;;;64.23;45.80;;;;;;;9.12;100.00;103001.94;5115933;28;20380;-35
2021/10/09 08:00:07;;;;;;;66.73;45.90;;;;;;;9.14;100.00;102997.25;5116914;28;20035;-35
2021/10/09 08:02:35;;;;;;;67.05;45.60;;;;;;;9.21;100.00;103003.63;5116495;28;20094;-36
2021/10/09 08:05:00;;;;;;;66.13;46.50;;;;;;;9.26;100.00;102998.56;5115778;28;20042;-35
2021/10/09 08:07:26;;;;;;;64.80;47.15;;;;;;;9.21;100.00;102995.53;5115904;28;20368;-35
2021/10/09 08:09:51;;;;;;;64.63;45.60;;;;;;;9.38;100.00;103008.03;5115907;28;20404;-35
2021/10/09 08:12:16;;;;;;;66.77;46.57;;;;;;;9.47;100.00;103009.72;5116052;28;20032;-35
2021/10/09 08:14:41;;;;;;;62.63;46.60;;;;;;;9.51;100.00;103005.63;5115964;28;20024;-35
2021/10/09 08:17:07;;;;;;;64.50;46.77;;;;;;;9.56;100.00;103005.13;5115862;28;20110;-35
2021/10/09 08:19:32;;;;;;;61.70;45.07;;;;;;;9.59;100.00;102998.53;5115467;28;20027;-35
2021/10/09 08:22:01;;;;;;;61.27;45.23;;;;;;;9.75;100.00;103009.31;5115454;28;20053;-35
2021/10/09 08:40:09;;;;;;;58.90;44.15;;;;;;;10.17;96.06;103024.38;5115302;28;20122;-35
2021/10/09 08:42:34;;;;;;;54.40;40.40;;;;;;;10.25;96.50;103013.56;5115614;28;20030;-35
2021/10/09 08:45:00;;;;;;;56.97;42.20;;;;;;;10.29;96.74;103010.31;5115272;28;20028;-35
2021/10/09 08:47:25;;;;;;;57.17;40.50;;;;;;;10.41;96.57;103026.16;5115351;28;20035;-35
2021/10/09 08:49:51;;;;;;;55.60;41.05;;;;;;;10.46;95.57;103023.78;5114912;28;20019;-35
2021/10/09 08:52:20;;;;;;;57.53;40.72;;;;;;;10.36;94.53;103005.06;5115540;28;20080;-35
2021/10/09 08:54:46;;;;;;;57.17;41.22;;;;;;;10.55;95.80;103017.31;5115016;28;20051;-35
2021/10/09 08:57:19;;;;;;;53.10;39.25;;;;;;;10.71;95.35;103024.47;5115323;28;20062;-35
2021/10/09 08:59:59;;;;;;;53.22;38.58;;;;;;;10.85;95.45;103020.16;5115482;28;20115;-35
2021/10/09 09:02:35;;;;;;;55.65;42.05;;;;;;;10.77;93.77;103007.50;5114958;28;20115;-35
2021/10/09 09:32:49;;;;;;;48.33;35.75;;;;;;;11.75;88.01;103015.59;5114101;28;20118;-35
2021/10/09 09:35:25;;;;;;;46.92;36.10;;;;;;;11.82;87.89;103013.88;5114158;28;20019;-35
2021/10/09 09:40:37;;;;;;;50.05;35.10;;;;;;;11.96;87.71;103005.94;5114154;28;20383;-35
2021/10/09 09:43:03;;;;;;;43.15;34.58;;;;;;;12.06;87.58;102999.19;5114638;28;20035;-36
2021/10/09 09:45:29;;;;;;;43.78;34.40;;;;;;;12.12;86.76;103000.31;5114461;28;20424;-35
2021/10/09 09:47:57;;;;;;;50.10;35.35;;;;;;;12.23;87.76;102998.97;5114301;28;20023;-35
2021/10/09 09:50:23;;;;;;;49.20;35.40;;;;;;;12.36;86.83;102991.84;5113866;28;20015;-35
2021/10/09 09:52:49;;;;;;;45.70;35.08;;;;;;;12.44;86.41;102990.03;5114279;28;20416;-35
2021/10/09 09:55:16;;;;;;;45.00;35.67;;;;;;;12.58;85.70;102983.72;5113680;28;20051;-35
2021/10/09 09:57:42;;;;;;;45.17;33.10;;;;;;;12.60;84.36;102985.25;5114152;28;20435;-35
2021/10/09 10:00:10;;;;;;;;;;;;;;;12.79;85.93;102978.34;5114278;28;20039;-35
2021/10/09 10:02:41;;;;;;;;;;;;;;;12.88;84.54;102981.75;5114117;28;19911;-35
2021/10/09 10:05:07;;;;;;;44.65;33.08;;;;;;;12.82;81.99;102977.09;5114407;28;20073;-35
2021/10/09 10:07:35;;;;;;;45.90;32.15;;;;;;;12.93;81.96;102976.56;5114125;28;20046;-35
2021/10/09 10:10:01;;;;;;;39.08;31.42;;;;;;;12.90;81.42;102955.25;5113625;28;20100;-35
2021/10/09 10:12:29;;;;;;;43.13;32.75;;;;;;;13.11;82.42;102966.06;5114025;28;20447;-35
2021/10/09 10:14:54;;;;;;;43.13;33.17;;;;;;;13.23;80.88;102985.44;5113566;28;20031;-35
2021/10/09 10:17:38;;;;;;;42.25;32.67;;;;;;;13.23;81.90;102981.91;5112981;28;20023;-35
2021/10/09 10:20:06;;;;;;;41.08;31.58;;;;;;;13.25;80.30;102979.81;5113601;28;20039;-35
2021/10/09 10:22:34;;;;;;;43.28;31.65;;;;;;;13.21;80.29;102960.31;5113559;28;20045;-35
2021/10/09 10:25:00;;;;;;;40.55;32.10;;;;;;;13.28;79.10;102976.72;5113544;28;20130;-35
2021/10/09 10:27:36;;;;;;;40.47;30.23;;;;;;;13.38;80.66;102982.63;5113942;28;20375;-35
2021/10/09 10:30:14;;;;;;;;;;;;;;;13.60;81.82;102980.69;5113975;28;20049;-36
2021/10/09 10:32:40;;;;;;;43.40;32.00;;;;;;;13.63;79.93;102966.69;5113657;28;19915;-35
2021/10/09 10:35:30;;;;;;;44.35;32.08;;;;;;;13.75;78.86;102973.25;5113189;28;20102;-35
2021/10/09 10:38:08;;;;;;;40.55;32.15;;;;;;;13.84;79.76;102973.94;5113590;28;20031;-36
2021/10/09 10:40:46;;;;;;;42.05;32.20;;;;;;;13.70;77.13;102975.72;5113833;28;20015;-36
2021/10/09 10:43:54;;;;;;;41.03;32.40;;;;;;;13.79;78.00;102981.84;5113292;28;20031;-35
2021/10/09 10:46:43;;;;;;;40.60;31.67;;;;;;;13.94;79.54;102970.84;5112373;28;20039;-35
2021/10/09 10:51:42;;;;;;;46.92;31.98;;;;;;;14.09;78.08;102974.25;5113046;28;20438;-35
2021/10/09 10:56:55;;;;;;;43.33;32.50;;;;;;;14.07;76.89;102974.47;5113484;28;20402;-35
2021/10/09 11:02:25;;;;;;;41.08;31.35;;;;;;;14.13;77.14;102964.66;5113487;28;20020;-35
2021/10/09 11:04:53;;;;;;;47.03;31.50;;;;;;;14.05;76.30;102946.59;5113825;28;20356;-35
2021/10/09 11:07:24;;;;;;;41.45;30.75;;;;;;;14.26;77.25;102958.44;5113507;28;20027;-36
2021/10/09 11:09:51;;;;;;;40.90;32.97;;;;;;;14.20;74.78;102961.94;5113160;28;20103;-35
2021/10/09 11:12:22;;;;;;;40.70;28.45;;;;;;;14.46;77.30;102963.94;5113905;28;20046;-35
2021/10/09 11:14:48;;;;;;;39.03;29.23;;;;;;;14.47;74.29;102966.44;5113443;28;20039;-35
2021/10/09 11:17:13;;;;;;;39.00;31.42;;;;;;;14.54;74.84;102961.91;5113241;28;20036;-36
2021/10/09 11:19:50;;;;;;;43.00;30.17;;;;;;;14.55;73.14;102962.72;5112842;28;20538;-35
2021/10/09 11:22:18;;;;;;;34.22;26.48;;;;;;;14.52;73.47;102953.06;5113225;28;20471;-36
2021/10/09 11:24:55;;;;;;;40.05;27.60;;;;;;;14.71;75.43;102954.16;5112980;28;20058;-35
2021/10/09 11:27:21;;;;;;;39.40;29.20;;;;;;;14.71;73.00;102958.78;5112691;28;20024;-35
2021/10/09 11:30:07;;;;;;;39.17;28.53;;;;;;;14.75;73.07;102952.72;5115101;28;20049;-35
2021/10/09 11:32:34;;;;;;;33.58;26.77;;;;;;;14.78;73.54;102959.59;5116967;28;20725;-35
2021/10/09 11:35:00;;;;;;;36.97;27.65;;;;;;;14.86;71.80;102953.97;5116310;28;20452;-35
2021/10/09 11:37:26;;;;;;;41.65;29.13;;;;;;;14.77;72.14;102938.88;5116386;28;20024;-35
2021/10/09 11:39:59;;;;;;;35.55;28.13;;;;;;;15.01;72.72;102946.44;5116484;28;20364;-36
2021/10/09 11:42:29;;;;;;;34.53;27.15;;;;;;;15.02;71.36;102947.25;5117119;28;20024;-36
2021/10/09 11:56:04;;;;;;;34.88;26.80;;;;;;;15.19;69.03;102943.91;5116328;28;20035;-36
2021/10/09 11:58:30;;;;;;;34.33;26.30;;;;;;;15.26;71.25;102945.78;5116294;28;20030;-36
2021/10/09 12:00:56;;;;;;;35.03;25.15;;;;;;;15.29;70.91;102939.94;5116429;28;20348;-36
2021/10/09 12:03:25;;;;;;;35.72;25.80;;;;;;;15.34;69.15;102940.97;5115662;28;20080;-36
2021/10/09 12:05:59;;;;;;;34.10;26.30;;;;;;;15.29;69.21;102954.38;5116436;28;20027;-36
2021/10/09 12:08:26;;;;;;;34.83;27.80;;;;;;;15.35;68.28;102941.78;5116199;28;20023;-36
2021/10/09 12:11:13;;;;;;;35.70;27.90;;;;;;;15.38;70.23;102941.38;5116578;28;20058;-35
2021/10/09 12:13:49;;;;;;;;;;;;;;;15.55;71.09;102931.69;5117312;28;20034;-36
2021/10/09 12:16:16;;;;;;;34.58;26.02;;;;;;;15.58;69.38;102925.81;5116049;28;19968;-36
2021/10/09 12:18:45;;;;;;;34.50;26.75;;;;;;;15.46;67.67;102924.78;5115868;28;20024;-36
2021/10/09 12:21:11;;;;;;;40.00;28.15;;;;;;;15.54;68.74;102927.28;5115886;28;20057;-36
2021/10/09 12:23:36;;;;;;;33.63;25.53;;;;;;;15.58;68.37;102923.09;5115853;28;20099;-36
2021/10/09 12:26:12;;;;;;;37.70;27.20;;;;;;;15.60;70.04;102922.88;5115421;28;20116;-35
2021/10/09 12:29:05;;;;;;;38.10;26.33;;;;;;;15.69;68.39;102911.53;5116110;28;20051;-35
2021/10/09 12:31:33;;;;;;;36.03;25.85;;;;;;;15.87;68.76;102915.47;5115299;28;20478;-36
2021/10/09 12:33:59;;;;;;;35.58;26.05;;;;;;;15.86;68.47;102906.47;5115573;28;20336;-35
2021/10/09 12:39:21;;;;;;;37.05;23.98;;;;;;;15.98;66.51;102914.78;5116038;28;20035;-35
2021/10/09 12:41:48;;;;;;;31.45;25.08;;;;;;;16.00;66.20;102906.38;5115700;28;20102;-36
2021/10/09 12:44:14;;;;;;;31.55;24.38;;;;;;;15.94;66.85;102898.00;5115441;28;20030;-36
2021/10/09 12:46:39;;;;;;;33.83;24.70;;;;;;;16.07;65.50;102901.75;5115932;28;20032;-36
2021/10/09 12:49:04;;;;;;;35.37;24.33;;;;;;;16.15;66.28;102904.19;5115568;28;20011;-36
2021/10/09 12:51:30;;;;;;;30.60;23.85;;;;;;;16.26;69.27;102891.78;5115222;28;20269;-36
2021/10/09 12:53:59;;;;;;;29.97;22.80;;;;;;;16.22;65.37;102905.00;5115238;28;20072;-36
2021/10/09 12:56:24;;;;;;;35.60;22.40;;;;;;;16.18;64.95;102896.41;5096947;28;20348;-36
2021/10/09 12:58:50;;;;;;;28.17;21.07;;;;;;;16.26;67.05;102899.97;5115719;28;20094;-36
2021/10/09 13:01:15;;;;;;;28.60;21.52;;;;;;;16.17;65.49;102891.19;5115643;28;20341;-36
2021/10/09 13:03:40;;;;;;;28.27;21.30;;;;;;;16.18;65.63;102892.84;5115325;28;20031;-36
2021/10/09 13:06:06;;;;;;;29.33;21.97;;;;;;;16.32;66.01;102890.88;5114708;28;20293;-36
2021/10/09 13:08:31;;;;;;;31.63;22.55;;;;;;;16.35;64.69;102883.09;5114925;28;20361;-36
2021/10/09 13:10:59;;;;;;;32.47;23.23;;;;;;;16.34;66.54;102881.41;5115342;28;20096;-36
2021/10/09 13:13:24;;;;;;;28.60;22.73;;;;;;;16.42;65.34;102885.78;5114543;28;20311;-36
2021/10/09 13:15:50;;;;;;;24.40;20.17;;;;;;;16.46;65.10;102879.66;5115123;28;20354;-36
2021/10/09 13:18:15;;;;;;;;;;;;;;;16.47;62.94;102883.22;5115507;28;20020;-36
2021/10/09 13:20:40;;;;;;;32.30;22.00;;;;;;;16.33;63.21;102878.91;5114751;28;19915;-36
2021/10/09 13:23:05;;;;;;;25.80;21.57;;;;;;;16.38;63.82;102882.63;5115569;28;20261;-36
2021/10/09 13:25:31;;;;;;;31.25;22.05;;;;;;;16.37;67.27;102878.25;5114713;28;20323;-36
2021/10/09 13:27:57;;;;;;;29.67;21.80;;;;;;;16.40;66.18;102879.72;5114961;28;20486;-36
2021/10/09 13:30:22;;;;;;;32.53;23.17;;;;;;;16.31;63.23;102881.03;5114408;28;20016;-36
2021/10/09 13:32:48;;;;;;;32.35;21.00;;;;;;;16.33;63.20;102868.81;5114214;28;20026;-36